sensor_id;sensor_type;location;lat;lon;timestamp;P1;durP1;ratioP1;P2;durP2;ratioP2
70450;SDS011;58869;51.982;4.450;2022-08-21T00:01:25;3.78;;;3.50;;
70450;SDS011;58869;51.982;4.450;2022-08-21T00:03:53;3.59;;;3.34;;
70450;SDS011;58869;51.982;4.450;2022-08-21T00:06:19;3.73;;;3.51;;
70450;SDS011;58869;51.982;4.450;2022-08-21T00:08:45;3.48;;;3.27;;
70450;SDS011;58869;51.982;4.450;2022-08-21T00:11:10;3.61;;;3.31;;
70450;SDS011;58869;51.982;4.450;2022-08-21T00:13:36;3.49;;;3.16;;
70450;SDS011;58869;51.982;4.450;2022-08-21T00:16:02;3.43;;;3.11;;
70450;SDS011;58869;51.982;4.450;2022-08-21T00:18:28;3.17;;;2.85;;
70450;SDS011;58869;51.982;4.450;2022-08-21T00:20:53;3.49;;;3.07;;
70450;SDS011;58869;51.982;4.450;2022-08-21T00:23:19;3.60;;;3.19;;
70450;SDS011;58869;51.982;4.450;2022-08-21T00:25:45;3.53;;;3.22;;
70450;SDS011;58869;51.982;4.450;2022-08-21T00:28:11;3.58;;;3.20;;
70450;SDS011;58869;51.982;4.450;2022-08-21T00:30:38;3.42;;;3.02;;
70450;SDS011;58869;51.982;4.450;2022-08-21T00:33:04;3.66;;;3.21;;
70450;SDS011;58869;51.982;4.450;2022-08-21T00:35:35;3.55;;;3.12;;
70450;SDS011;58869;51.982;4.450;2022-08-21T00:38:05;3.45;;;3.04;;
70450;SDS011;58869;51.982;4.450;2022-08-21T00:40:56;3.35;;;2.93;;
70450;SDS011;58869;51.982;4.450;2022-08-21T00:43:21;3.44;;;3.05;;
70450;SDS011;58869;51.982;4.450;2022-08-21T00:45:49;3.31;;;2.95;;
70450;SDS011;58869;51.982;4.450;2022-08-21T00:48:15;3.29;;;2.96;;
70450;SDS011;58869;51.982;4.450;2022-08-21T00:50:50;3.52;;;3.18;;
70450;SDS011;58869;51.982;4.450;2022-08-21T00:53:35;3.48;;;3.11;;
70450;SDS011;58869;51.982;4.450;2022-08-21T00:56:05;3.67;;;3.27;;
70450;SDS011;58869;51.982;4.450;2022-08-21T00:58:33;3.83;;;3.34;;
70450;SDS011;58869;51.982;4.450;2022-08-21T01:01:01;3.66;;;3.20;;
70450;SDS011;58869;51.982;4.450;2022-08-21T01:03:28;3.62;;;3.24;;
70450;SDS011;58869;51.982;4.450;2022-08-21T01:05:53;3.53;;;3.16;;
70450;SDS011;58869;51.982;4.450;2022-08-21T01:08:19;3.42;;;3.15;;
70450;SDS011;58869;51.982;4.450;2022-08-21T01:10:46;3.37;;;3.14;;
70450;SDS011;58869;51.982;4.450;2022-08-21T01:13:13;3.59;;;3.33;;
70450;SDS011;58869;51.982;4.450;2022-08-21T01:15:42;3.12;;;2.87;;
70450;SDS011;58869;51.982;4.450;2022-08-21T01:18:10;3.54;;;3.20;;
70450;SDS011;58869;51.982;4.450;2022-08-21T01:20:37;3.41;;;3.09;;
70450;SDS011;58869;51.982;4.450;2022-08-21T01:23:05;3.62;;;3.23;;
70450;SDS011;58869;51.982;4.450;2022-08-21T01:25:32;3.51;;;3.12;;
70450;SDS011;58869;51.982;4.450;2022-08-21T01:28:00;3.92;;;3.40;;
70450;SDS011;58869;51.982;4.450;2022-08-21T01:30:32;3.36;;;2.98;;
70450;SDS011;58869;51.982;4.450;2022-08-21T01:33:01;2.93;;;2.70;;
70450;SDS011;58869;51.982;4.450;2022-08-21T01:35:26;3.13;;;2.91;;
70450;SDS011;58869;51.982;4.450;2022-08-21T01:37:52;3.11;;;2.86;;
70450;SDS011;58869;51.982;4.450;2022-08-21T01:40:18;3.14;;;2.82;;
70450;SDS011;58869;51.982;4.450;2022-08-21T01:42:44;3.17;;;2.89;;
70450;SDS011;58869;51.982;4.450;2022-08-21T01:45:11;3.41;;;3.06;;
70450;SDS011;58869;51.982;4.450;2022-08-21T01:47:38;3.37;;;2.96;;
70450;SDS011;58869;51.982;4.450;2022-08-21T01:50:05;3.24;;;2.86;;
70450;SDS011;58869;51.982;4.450;2022-08-21T01:52:33;3.60;;;3.21;;
70450;SDS011;58869;51.982;4.450;2022-08-21T01:54:58;3.61;;;3.28;;
70450;SDS011;58869;51.982;4.450;2022-08-21T01:57:24;4.08;;;3.77;;
70450;SDS011;58869;51.982;4.450;2022-08-21T01:59:49;4.35;;;3.99;;
70450;SDS011;58869;51.982;4.450;2022-08-21T02:02:15;5.39;;;5.01;;
70450;SDS011;58869;51.982;4.450;2022-08-21T02:04:40;7.32;;;6.76;;
70450;SDS011;58869;51.982;4.450;2022-08-21T02:07:06;8.76;;;8.06;;
70450;SDS011;58869;51.982;4.450;2022-08-21T02:09:32;11.41;;;10.37;;
70450;SDS011;58869;51.982;4.450;2022-08-21T02:11:57;12.16;;;11.12;;
70450;SDS011;58869;51.982;4.450;2022-08-21T02:14:24;14.64;;;13.74;;
70450;SDS011;58869;51.982;4.450;2022-08-21T02:16:50;14.16;;;13.37;;
70450;SDS011;58869;51.982;4.450;2022-08-21T02:19:15;14.06;;;13.19;;
70450;SDS011;58869;51.982;4.450;2022-08-21T02:21:41;12.19;;;11.52;;
70450;SDS011;58869;51.982;4.450;2022-08-21T02:24:06;10.00;;;9.37;;
70450;SDS011;58869;51.982;4.450;2022-08-21T02:26:33;9.34;;;8.59;;
70450;SDS011;58869;51.982;4.450;2022-08-21T02:28:58;8.42;;;7.78;;
70450;SDS011;58869;51.982;4.450;2022-08-21T02:31:24;7.19;;;6.64;;
70450;SDS011;58869;51.982;4.450;2022-08-21T02:33:50;6.72;;;6.23;;
70450;SDS011;58869;51.982;4.450;2022-08-21T02:36:15;5.72;;;5.30;;
70450;SDS011;58869;51.982;4.450;2022-08-21T02:38:41;5.23;;;4.84;;
70450;SDS011;58869;51.982;4.450;2022-08-21T02:41:18;4.31;;;3.97;;
70450;SDS011;58869;51.982;4.450;2022-08-21T02:43:47;4.33;;;4.06;;
70450;SDS011;58869;51.982;4.450;2022-08-21T02:46:14;3.95;;;3.70;;
70450;SDS011;58869;51.982;4.450;2022-08-21T02:48:42;3.76;;;3.56;;
70450;SDS011;58869;51.982;4.450;2022-08-21T02:51:09;3.79;;;3.57;;
70450;SDS011;58869;51.982;4.450;2022-08-21T02:53:37;3.78;;;3.61;;
70450;SDS011;58869;51.982;4.450;2022-08-21T02:56:04;3.77;;;3.77;;
70450;SDS011;58869;51.982;4.450;2022-08-21T02:58:34;3.66;;;3.61;;
70450;SDS011;58869;51.982;4.450;2022-08-21T03:01:03;4.45;;;4.22;;
70450;SDS011;58869;51.982;4.450;2022-08-21T03:03:29;4.07;;;3.86;;
70450;SDS011;58869;51.982;4.450;2022-08-21T03:05:55;3.97;;;3.74;;
70450;SDS011;58869;51.982;4.450;2022-08-21T03:08:21;4.13;;;3.91;;
70450;SDS011;58869;51.982;4.450;2022-08-21T03:10:49;4.71;;;4.45;;
70450;SDS011;58869;51.982;4.450;2022-08-21T03:13:16;4.18;;;3.98;;
70450;SDS011;58869;51.982;4.450;2022-08-21T03:15:44;4.03;;;3.74;;
70450;SDS011;58869;51.982;4.450;2022-08-21T03:18:10;3.67;;;3.40;;
70450;SDS011;58869;51.982;4.450;2022-08-21T03:20:36;3.86;;;3.57;;
70450;SDS011;58869;51.982;4.450;2022-08-21T03:23:04;3.63;;;3.39;;
70450;SDS011;58869;51.982;4.450;2022-08-21T03:25:33;3.81;;;3.55;;
70450;SDS011;58869;51.982;4.450;2022-08-21T03:27:59;3.92;;;3.72;;
70450;SDS011;58869;51.982;4.450;2022-08-21T03:30:26;3.89;;;3.70;;
70450;SDS011;58869;51.982;4.450;2022-08-21T03:32:52;4.23;;;4.00;;
70450;SDS011;58869;51.982;4.450;2022-08-21T03:35:18;4.61;;;4.39;;
70450;SDS011;58869;51.982;4.450;2022-08-21T03:37:44;5.85;;;5.60;;
70450;SDS011;58869;51.982;4.450;2022-08-21T03:40:10;5.01;;;4.85;;
70450;SDS011;58869;51.982;4.450;2022-08-21T03:42:37;4.87;;;4.61;;
70450;SDS011;58869;51.982;4.450;2022-08-21T03:45:03;4.70;;;4.52;;
70450;SDS011;58869;51.982;4.450;2022-08-21T03:47:30;4.28;;;4.07;;
70450;SDS011;58869;51.982;4.450;2022-08-21T03:49:55;4.00;;;3.79;;
70450;SDS011;58869;51.982;4.450;2022-08-21T03:52:21;3.79;;;3.63;;
70450;SDS011;58869;51.982;4.450;2022-08-21T03:54:49;3.93;;;3.73;;
70450;SDS011;58869;51.982;4.450;2022-08-21T03:57:15;3.79;;;3.59;;
70450;SDS011;58869;51.982;4.450;2022-08-21T03:59:41;3.99;;;3.77;;
70450;SDS011;58869;51.982;4.450;2022-08-21T04:02:08;3.90;;;3.70;;
70450;SDS011;58869;51.982;4.450;2022-08-21T04:04:34;3.77;;;3.53;;
70450;SDS011;58869;51.982;4.450;2022-08-21T04:07:00;4.23;;;3.97;;
70450;SDS011;58869;51.982;4.450;2022-08-21T04:09:26;3.91;;;3.69;;
70450;SDS011;58869;51.982;4.450;2022-08-21T04:11:52;3.92;;;3.68;;
70450;SDS011;58869;51.982;4.450;2022-08-21T04:14:19;3.91;;;3.67;;
70450;SDS011;58869;51.982;4.450;2022-08-21T04:16:47;4.27;;;3.97;;
70450;SDS011;58869;51.982;4.450;2022-08-21T04:19:14;4.23;;;3.88;;
70450;SDS011;58869;51.982;4.450;2022-08-21T04:21:39;4.53;;;4.13;;
70450;SDS011;58869;51.982;4.450;2022-08-21T04:24:06;4.03;;;3.74;;
70450;SDS011;58869;51.982;4.450;2022-08-21T04:26:33;3.95;;;3.67;;
70450;SDS011;58869;51.982;4.450;2022-08-21T04:28:59;3.77;;;3.49;;
70450;SDS011;58869;51.982;4.450;2022-08-21T04:31:26;4.01;;;3.67;;
70450;SDS011;58869;51.982;4.450;2022-08-21T04:33:52;4.33;;;3.90;;
70450;SDS011;58869;51.982;4.450;2022-08-21T04:36:17;4.36;;;3.94;;
70450;SDS011;58869;51.982;4.450;2022-08-21T04:38:43;4.89;;;4.38;;
70450;SDS011;58869;51.982;4.450;2022-08-21T04:41:08;4.61;;;4.16;;
70450;SDS011;58869;51.982;4.450;2022-08-21T04:43:34;4.81;;;4.36;;
70450;SDS011;58869;51.982;4.450;2022-08-21T04:46:00;4.56;;;4.11;;
70450;SDS011;58869;51.982;4.450;2022-08-21T04:48:26;4.13;;;4.02;;
70450;SDS011;58869;51.982;4.450;2022-08-21T04:51:06;4.29;;;4.28;;
70450;SDS011;58869;51.982;4.450;2022-08-21T04:53:44;4.17;;;4.10;;
70450;SDS011;58869;51.982;4.450;2022-08-21T04:56:14;4.57;;;4.38;;
70450;SDS011;58869;51.982;4.450;2022-08-21T04:58:44;4.93;;;4.61;;
70450;SDS011;58869;51.982;4.450;2022-08-21T05:01:11;4.89;;;4.58;;
70450;SDS011;58869;51.982;4.450;2022-08-21T05:03:39;5.02;;;4.74;;
70450;SDS011;58869;51.982;4.450;2022-08-21T05:06:07;5.55;;;5.25;;
70450;SDS011;58869;51.982;4.450;2022-08-21T05:08:37;5.77;;;5.56;;
70450;SDS011;58869;51.982;4.450;2022-08-21T05:11:05;5.85;;;5.69;;
70450;SDS011;58869;51.982;4.450;2022-08-21T05:13:31;6.16;;;6.02;;
70450;SDS011;58869;51.982;4.450;2022-08-21T05:15:57;6.50;;;6.39;;
70450;SDS011;58869;51.982;4.450;2022-08-21T05:18:23;7.12;;;7.10;;
70450;SDS011;58869;51.982;4.450;2022-08-21T05:20:50;7.57;;;7.45;;
70450;SDS011;58869;51.982;4.450;2022-08-21T05:23:16;7.53;;;7.50;;
70450;SDS011;58869;51.982;4.450;2022-08-21T05:25:42;7.16;;;7.15;;
70450;SDS011;58869;51.982;4.450;2022-08-21T05:28:08;8.32;;;8.23;;
70450;SDS011;58869;51.982;4.450;2022-08-21T05:30:34;8.08;;;7.94;;
70450;SDS011;58869;51.982;4.450;2022-08-21T05:33:01;8.51;;;8.37;;
70450;SDS011;58869;51.982;4.450;2022-08-21T05:35:28;7.94;;;7.86;;
70450;SDS011;58869;51.982;4.450;2022-08-21T05:37:54;7.53;;;7.44;;
70450;SDS011;58869;51.982;4.450;2022-08-21T05:40:21;6.47;;;6.33;;
70450;SDS011;58869;51.982;4.450;2022-08-21T05:42:47;6.06;;;5.82;;
70450;SDS011;58869;51.982;4.450;2022-08-21T05:45:12;5.10;;;5.04;;
70450;SDS011;58869;51.982;4.450;2022-08-21T05:47:38;5.22;;;5.02;;
70450;SDS011;58869;51.982;4.450;2022-08-21T05:50:04;5.30;;;5.02;;
70450;SDS011;58869;51.982;4.450;2022-08-21T05:52:30;5.20;;;5.04;;
70450;SDS011;58869;51.982;4.450;2022-08-21T05:54:56;6.71;;;6.51;;
70450;SDS011;58869;51.982;4.450;2022-08-21T05:57:21;6.74;;;6.67;;
70450;SDS011;58869;51.982;4.450;2022-08-21T05:59:47;6.31;;;6.26;;
70450;SDS011;58869;51.982;4.450;2022-08-21T06:02:13;5.68;;;5.56;;
70450;SDS011;58869;51.982;4.450;2022-08-21T06:04:39;5.15;;;5.11;;
70450;SDS011;58869;51.982;4.450;2022-08-21T06:07:05;5.56;;;5.44;;
70450;SDS011;58869;51.982;4.450;2022-08-21T06:09:32;5.12;;;5.00;;
70450;SDS011;58869;51.982;4.450;2022-08-21T06:11:58;5.48;;;5.42;;
70450;SDS011;58869;51.982;4.450;2022-08-21T06:14:23;6.28;;;6.04;;
70450;SDS011;58869;51.982;4.450;2022-08-21T06:16:49;6.03;;;5.96;;
70450;SDS011;58869;51.982;4.450;2022-08-21T06:19:14;6.80;;;6.57;;
70450;SDS011;58869;51.982;4.450;2022-08-21T06:21:40;6.07;;;5.86;;
70450;SDS011;58869;51.982;4.450;2022-08-21T06:24:06;6.25;;;6.01;;
70450;SDS011;58869;51.982;4.450;2022-08-21T06:26:32;6.63;;;6.35;;
70450;SDS011;58869;51.982;4.450;2022-08-21T06:28:58;6.60;;;6.36;;
70450;SDS011;58869;51.982;4.450;2022-08-21T06:31:25;6.52;;;6.28;;
70450;SDS011;58869;51.982;4.450;2022-08-21T06:33:52;6.91;;;6.59;;
70450;SDS011;58869;51.982;4.450;2022-08-21T06:36:18;6.59;;;6.24;;
70450;SDS011;58869;51.982;4.450;2022-08-21T06:38:44;6.48;;;6.21;;
70450;SDS011;58869;51.982;4.450;2022-08-21T06:41:11;6.52;;;6.25;;
70450;SDS011;58869;51.982;4.450;2022-08-21T06:43:37;6.67;;;6.36;;
70450;SDS011;58869;51.982;4.450;2022-08-21T06:46:02;6.52;;;6.26;;
70450;SDS011;58869;51.982;4.450;2022-08-21T06:48:28;6.24;;;5.93;;
70450;SDS011;58869;51.982;4.450;2022-08-21T06:50:54;6.39;;;6.12;;
70450;SDS011;58869;51.982;4.450;2022-08-21T06:53:21;6.24;;;5.95;;
70450;SDS011;58869;51.982;4.450;2022-08-21T06:55:47;5.94;;;5.72;;
70450;SDS011;58869;51.982;4.450;2022-08-21T06:58:13;6.94;;;6.50;;
70450;SDS011;58869;51.982;4.450;2022-08-21T07:00:41;6.68;;;6.45;;
70450;SDS011;58869;51.982;4.450;2022-08-21T07:03:19;6.24;;;6.03;;
70450;SDS011;58869;51.982;4.450;2022-08-21T07:05:44;5.66;;;5.46;;
70450;SDS011;58869;51.982;4.450;2022-08-21T07:08:10;5.24;;;5.15;;
70450;SDS011;58869;51.982;4.450;2022-08-21T07:10:35;4.60;;;4.54;;
70450;SDS011;58869;51.982;4.450;2022-08-21T07:13:01;4.97;;;4.84;;
70450;SDS011;58869;51.982;4.450;2022-08-21T07:15:30;5.13;;;4.88;;
70450;SDS011;58869;51.982;4.450;2022-08-21T07:17:55;5.74;;;5.26;;
70450;SDS011;58869;51.982;4.450;2022-08-21T07:20:22;5.01;;;4.77;;
70450;SDS011;58869;51.982;4.450;2022-08-21T07:22:48;5.34;;;4.95;;
70450;SDS011;58869;51.982;4.450;2022-08-21T07:25:13;5.02;;;4.76;;
70450;SDS011;58869;51.982;4.450;2022-08-21T07:27:38;4.39;;;4.37;;
70450;SDS011;58869;51.982;4.450;2022-08-21T07:30:04;4.91;;;4.81;;
70450;SDS011;58869;51.982;4.450;2022-08-21T07:32:34;4.88;;;4.70;;
70450;SDS011;58869;51.982;4.450;2022-08-21T07:34:59;4.85;;;4.73;;
70450;SDS011;58869;51.982;4.450;2022-08-21T07:37:25;4.34;;;4.22;;
70450;SDS011;58869;51.982;4.450;2022-08-21T07:39:51;4.90;;;4.52;;
70450;SDS011;58869;51.982;4.450;2022-08-21T07:42:16;4.88;;;4.44;;
70450;SDS011;58869;51.982;4.450;2022-08-21T07:44:42;4.87;;;4.35;;
70450;SDS011;58869;51.982;4.450;2022-08-21T07:47:08;4.27;;;4.12;;
70450;SDS011;58869;51.982;4.450;2022-08-21T07:49:33;4.70;;;4.25;;
70450;SDS011;58869;51.982;4.450;2022-08-21T07:52:00;5.30;;;4.85;;
70450;SDS011;58869;51.982;4.450;2022-08-21T07:54:26;4.88;;;4.48;;
70450;SDS011;58869;51.982;4.450;2022-08-21T07:56:51;4.88;;;4.40;;
70450;SDS011;58869;51.982;4.450;2022-08-21T07:59:17;4.70;;;4.27;;
70450;SDS011;58869;51.982;4.450;2022-08-21T08:01:42;4.79;;;4.41;;
70450;SDS011;58869;51.982;4.450;2022-08-21T08:04:08;4.41;;;4.07;;
70450;SDS011;58869;51.982;4.450;2022-08-21T08:06:33;4.61;;;4.16;;
70450;SDS011;58869;51.982;4.450;2022-08-21T08:08:59;5.12;;;4.53;;
70450;SDS011;58869;51.982;4.450;2022-08-21T08:11:27;4.50;;;4.10;;
70450;SDS011;58869;51.982;4.450;2022-08-21T08:13:53;4.71;;;4.30;;
70450;SDS011;58869;51.982;4.450;2022-08-21T08:16:18;4.88;;;4.42;;
70450;SDS011;58869;51.982;4.450;2022-08-21T08:18:44;5.07;;;4.66;;
70450;SDS011;58869;51.982;4.450;2022-08-21T08:21:11;4.68;;;4.45;;
70450;SDS011;58869;51.982;4.450;2022-08-21T08:23:37;4.43;;;4.21;;
70450;SDS011;58869;51.982;4.450;2022-08-21T08:26:04;3.70;;;3.70;;
70450;SDS011;58869;51.982;4.450;2022-08-21T08:28:31;3.80;;;3.79;;
70450;SDS011;58869;51.982;4.450;2022-08-21T08:30:58;4.07;;;3.88;;
70450;SDS011;58869;51.982;4.450;2022-08-21T08:33:25;3.64;;;3.63;;
70450;SDS011;58869;51.982;4.450;2022-08-21T08:35:51;4.59;;;4.24;;
70450;SDS011;58869;51.982;4.450;2022-08-21T08:38:17;4.34;;;3.90;;
70450;SDS011;58869;51.982;4.450;2022-08-21T08:43:34;3.86;;;3.48;;
70450;SDS011;58869;51.982;4.450;2022-08-21T08:46:03;4.44;;;3.96;;
70450;SDS011;58869;51.982;4.450;2022-08-21T08:51:27;4.36;;;3.95;;
70450;SDS011;58869;51.982;4.450;2022-08-21T08:54:15;4.33;;;3.93;;
70450;SDS011;58869;51.982;4.450;2022-08-21T08:56:51;3.96;;;3.52;;
70450;SDS011;58869;51.982;4.450;2022-08-21T08:59:20;4.13;;;3.69;;
70450;SDS011;58869;51.982;4.450;2022-08-21T09:01:51;3.92;;;3.51;;
70450;SDS011;58869;51.982;4.450;2022-08-21T09:04:18;3.62;;;3.17;;
70450;SDS011;58869;51.982;4.450;2022-08-21T09:12:29;3.68;;;3.22;;
70450;SDS011;58869;51.982;4.450;2022-08-21T09:15:15;4.01;;;3.52;;
70450;SDS011;58869;51.982;4.450;2022-08-21T09:28:33;4.08;;;3.58;;
70450;SDS011;58869;51.982;4.450;2022-08-21T09:30:59;4.16;;;3.62;;
70450;SDS011;58869;51.982;4.450;2022-08-21T09:33:27;3.69;;;3.19;;
70450;SDS011;58869;51.982;4.450;2022-08-21T09:35:54;3.56;;;2.98;;
70450;SDS011;58869;51.982;4.450;2022-08-21T09:38:30;3.89;;;3.14;;
70450;SDS011;58869;51.982;4.450;2022-08-21T09:41:00;3.73;;;3.05;;
70450;SDS011;58869;51.982;4.450;2022-08-21T09:43:28;3.55;;;2.90;;
70450;SDS011;58869;51.982;4.450;2022-08-21T09:46:02;3.91;;;3.17;;
70450;SDS011;58869;51.982;4.450;2022-08-21T09:48:37;4.01;;;3.23;;
70450;SDS011;58869;51.982;4.450;2022-08-21T09:51:06;4.01;;;3.23;;
70450;SDS011;58869;51.982;4.450;2022-08-21T09:56:34;3.62;;;3.09;;
70450;SDS011;58869;51.982;4.450;2022-08-21T09:59:27;3.43;;;2.93;;
70450;SDS011;58869;51.982;4.450;2022-08-21T10:01:57;3.82;;;3.24;;
70450;SDS011;58869;51.982;4.450;2022-08-21T10:04:35;3.66;;;3.07;;
70450;SDS011;58869;51.982;4.450;2022-08-21T10:07:12;3.83;;;3.22;;
70450;SDS011;58869;51.982;4.450;2022-08-21T10:09:39;3.84;;;3.16;;
70450;SDS011;58869;51.982;4.450;2022-08-21T10:12:13;3.38;;;2.75;;
70450;SDS011;58869;51.982;4.450;2022-08-21T10:17:52;3.33;;;2.74;;
70450;SDS011;58869;51.982;4.450;2022-08-21T10:20:44;3.40;;;2.80;;
70450;SDS011;58869;51.982;4.450;2022-08-21T10:31:32;2.76;;;2.32;;
70450;SDS011;58869;51.982;4.450;2022-08-21T10:34:45;3.05;;;2.59;;
70450;SDS011;58869;51.982;4.450;2022-08-21T10:42:58;2.82;;;2.29;;
70450;SDS011;58869;51.982;4.450;2022-08-21T10:45:43;2.98;;;2.41;;
70450;SDS011;58869;51.982;4.450;2022-08-21T10:51:02;3.14;;;2.49;;
70450;SDS011;58869;51.982;4.450;2022-08-21T10:56:23;3.18;;;2.55;;
70450;SDS011;58869;51.982;4.450;2022-08-21T10:59:07;3.27;;;2.61;;
70450;SDS011;58869;51.982;4.450;2022-08-21T11:02:14;3.26;;;2.57;;
70450;SDS011;58869;51.982;4.450;2022-08-21T11:04:45;2.88;;;2.26;;
70450;SDS011;58869;51.982;4.450;2022-08-21T11:07:21;2.59;;;2.06;;
70450;SDS011;58869;51.982;4.450;2022-08-21T11:10:10;2.91;;;2.31;;
70450;SDS011;58869;51.982;4.450;2022-08-21T11:12:45;2.73;;;2.21;;
70450;SDS011;58869;51.982;4.450;2022-08-21T11:17:54;2.83;;;2.24;;
70450;SDS011;58869;51.982;4.450;2022-08-21T11:23:17;2.71;;;2.18;;
70450;SDS011;58869;51.982;4.450;2022-08-21T11:25:51;2.88;;;2.30;;
70450;SDS011;58869;51.982;4.450;2022-08-21T11:28:24;2.71;;;2.15;;
70450;SDS011;58869;51.982;4.450;2022-08-21T11:33:48;2.59;;;2.11;;
70450;SDS011;58869;51.982;4.450;2022-08-21T11:36:41;3.16;;;2.51;;
70450;SDS011;58869;51.982;4.450;2022-08-21T11:50:15;2.41;;;1.98;;
70450;SDS011;58869;51.982;4.450;2022-08-21T11:52:45;2.39;;;1.99;;
70450;SDS011;58869;51.982;4.450;2022-08-21T11:55:31;2.30;;;1.94;;
70450;SDS011;58869;51.982;4.450;2022-08-21T11:58:08;2.19;;;1.81;;
70450;SDS011;58869;51.982;4.450;2022-08-21T12:00:47;2.35;;;1.96;;
70450;SDS011;58869;51.982;4.450;2022-08-21T12:03:28;2.26;;;1.86;;
70450;SDS011;58869;51.982;4.450;2022-08-21T12:06:02;2.40;;;1.92;;
70450;SDS011;58869;51.982;4.450;2022-08-21T12:08:36;2.45;;;1.98;;
70450;SDS011;58869;51.982;4.450;2022-08-21T12:16:33;2.20;;;1.83;;
70450;SDS011;58869;51.982;4.450;2022-08-21T12:19:05;2.42;;;2.01;;
70450;SDS011;58869;51.982;4.450;2022-08-21T12:21:33;2.29;;;1.89;;
70450;SDS011;58869;51.982;4.450;2022-08-21T12:24:01;2.26;;;1.89;;
70450;SDS011;58869;51.982;4.450;2022-08-21T12:31:49;2.47;;;2.02;;
70450;SDS011;58869;51.982;4.450;2022-08-21T12:34:18;2.70;;;2.20;;
70450;SDS011;58869;51.982;4.450;2022-08-21T12:36:53;2.67;;;2.21;;
70450;SDS011;58869;51.982;4.450;2022-08-21T12:39:24;2.38;;;1.99;;
70450;SDS011;58869;51.982;4.450;2022-08-21T12:42:06;2.46;;;2.00;;
70450;SDS011;58869;51.982;4.450;2022-08-21T12:47:16;2.61;;;2.15;;
70450;SDS011;58869;51.982;4.450;2022-08-21T12:49:53;2.66;;;2.18;;
70450;SDS011;58869;51.982;4.450;2022-08-21T12:52:35;2.22;;;1.81;;
70450;SDS011;58869;51.982;4.450;2022-08-21T12:55:15;3.07;;;2.43;;
70450;SDS011;58869;51.982;4.450;2022-08-21T12:57:52;2.89;;;2.25;;
70450;SDS011;58869;51.982;4.450;2022-08-21T13:00:21;2.71;;;2.11;;
70450;SDS011;58869;51.982;4.450;2022-08-21T13:02:49;2.66;;;2.09;;
70450;SDS011;58869;51.982;4.450;2022-08-21T13:05:19;2.42;;;1.96;;
70450;SDS011;58869;51.982;4.450;2022-08-21T13:07:53;2.59;;;2.11;;
70450;SDS011;58869;51.982;4.450;2022-08-21T13:10:20;2.46;;;1.98;;
70450;SDS011;58869;51.982;4.450;2022-08-21T13:12:49;2.68;;;2.17;;
70450;SDS011;58869;51.982;4.450;2022-08-21T13:15:23;2.43;;;1.96;;
70450;SDS011;58869;51.982;4.450;2022-08-21T13:17:56;2.53;;;2.02;;
70450;SDS011;58869;51.982;4.450;2022-08-21T13:20:29;2.89;;;2.25;;
70450;SDS011;58869;51.982;4.450;2022-08-21T13:22:59;2.79;;;2.16;;
70450;SDS011;58869;51.982;4.450;2022-08-21T13:25:29;2.45;;;1.93;;
70450;SDS011;58869;51.982;4.450;2022-08-21T13:28:10;2.22;;;1.76;;
70450;SDS011;58869;51.982;4.450;2022-08-21T13:30:55;2.73;;;2.16;;
70450;SDS011;58869;51.982;4.450;2022-08-21T13:33:22;2.34;;;1.89;;
70450;SDS011;58869;51.982;4.450;2022-08-21T13:38:37;2.29;;;1.89;;
70450;SDS011;58869;51.982;4.450;2022-08-21T13:43:44;2.32;;;1.89;;
70450;SDS011;58869;51.982;4.450;2022-08-21T13:46:12;2.08;;;1.71;;
70450;SDS011;58869;51.982;4.450;2022-08-21T13:48:39;2.27;;;1.87;;
70450;SDS011;58869;51.982;4.450;2022-08-21T13:51:06;2.54;;;2.07;;
70450;SDS011;58869;51.982;4.450;2022-08-21T13:53:44;2.32;;;1.87;;
70450;SDS011;58869;51.982;4.450;2022-08-21T13:56:25;2.18;;;1.76;;
70450;SDS011;58869;51.982;4.450;2022-08-21T13:59:00;2.60;;;2.10;;
70450;SDS011;58869;51.982;4.450;2022-08-21T14:01:30;2.50;;;2.07;;
70450;SDS011;58869;51.982;4.450;2022-08-21T14:04:04;2.39;;;1.99;;
70450;SDS011;58869;51.982;4.450;2022-08-21T14:06:34;2.56;;;2.14;;
70450;SDS011;58869;51.982;4.450;2022-08-21T14:09:09;2.75;;;2.31;;
70450;SDS011;58869;51.982;4.450;2022-08-21T14:11:38;2.49;;;2.08;;
70450;SDS011;58869;51.982;4.450;2022-08-21T14:14:15;2.70;;;2.29;;
70450;SDS011;58869;51.982;4.450;2022-08-21T14:16:57;2.96;;;2.50;;
70450;SDS011;58869;51.982;4.450;2022-08-21T14:19:26;2.85;;;2.42;;
70450;SDS011;58869;51.982;4.450;2022-08-21T14:22:20;2.97;;;2.51;;
70450;SDS011;58869;51.982;4.450;2022-08-21T14:25:10;2.90;;;2.48;;
70450;SDS011;58869;51.982;4.450;2022-08-21T14:27:38;3.53;;;2.96;;
70450;SDS011;58869;51.982;4.450;2022-08-21T14:32:46;3.01;;;2.67;;
70450;SDS011;58869;51.982;4.450;2022-08-21T14:35:12;2.90;;;2.62;;
70450;SDS011;58869;51.982;4.450;2022-08-21T14:37:41;2.99;;;2.70;;
70450;SDS011;58869;51.982;4.450;2022-08-21T14:40:07;3.11;;;2.81;;
70450;SDS011;58869;51.982;4.450;2022-08-21T14:42:34;3.62;;;3.16;;
70450;SDS011;58869;51.982;4.450;2022-08-21T14:45:01;3.32;;;2.87;;
70450;SDS011;58869;51.982;4.450;2022-08-21T14:47:30;3.42;;;2.95;;
70450;SDS011;58869;51.982;4.450;2022-08-21T14:49:56;3.45;;;2.99;;
70450;SDS011;58869;51.982;4.450;2022-08-21T14:52:21;3.13;;;2.77;;
70450;SDS011;58869;51.982;4.450;2022-08-21T14:54:47;3.26;;;2.89;;
70450;SDS011;58869;51.982;4.450;2022-08-21T14:57:13;3.03;;;2.70;;
70450;SDS011;58869;51.982;4.450;2022-08-21T14:59:39;3.28;;;2.88;;
70450;SDS011;58869;51.982;4.450;2022-08-21T15:02:05;2.88;;;2.58;;
70450;SDS011;58869;51.982;4.450;2022-08-21T15:04:33;3.45;;;3.08;;
70450;SDS011;58869;51.982;4.450;2022-08-21T15:06:59;3.44;;;3.03;;
70450;SDS011;58869;51.982;4.450;2022-08-21T15:09:24;3.57;;;3.12;;
70450;SDS011;58869;51.982;4.450;2022-08-21T15:11:51;3.15;;;2.79;;
70450;SDS011;58869;51.982;4.450;2022-08-21T15:14:23;2.86;;;2.57;;
70450;SDS011;58869;51.982;4.450;2022-08-21T15:16:50;3.11;;;2.78;;
70450;SDS011;58869;51.982;4.450;2022-08-21T15:19:16;4.13;;;3.72;;
70450;SDS011;58869;51.982;4.450;2022-08-21T15:21:42;3.13;;;2.97;;
70450;SDS011;58869;51.982;4.450;2022-08-21T15:24:08;2.99;;;2.82;;
70450;SDS011;58869;51.982;4.450;2022-08-21T15:26:34;3.38;;;3.22;;
70450;SDS011;58869;51.982;4.450;2022-08-21T15:29:00;3.26;;;3.12;;
70450;SDS011;58869;51.982;4.450;2022-08-21T15:31:27;22.97;;;21.32;;
70450;SDS011;58869;51.982;4.450;2022-08-21T15:33:53;5.74;;;5.38;;
70450;SDS011;58869;51.982;4.450;2022-08-21T15:36:18;3.74;;;3.55;;
70450;SDS011;58869;51.982;4.450;2022-08-21T15:38:44;3.28;;;3.11;;
70450;SDS011;58869;51.982;4.450;2022-08-21T15:41:10;3.18;;;3.02;;
70450;SDS011;58869;51.982;4.450;2022-08-21T15:43:39;3.02;;;2.82;;
70450;SDS011;58869;51.982;4.450;2022-08-21T15:46:10;3.49;;;3.34;;
70450;SDS011;58869;51.982;4.450;2022-08-21T15:48:39;2.97;;;2.87;;
70450;SDS011;58869;51.982;4.450;2022-08-21T15:51:04;3.64;;;3.39;;
70450;SDS011;58869;51.982;4.450;2022-08-21T15:53:30;4.04;;;3.77;;
70450;SDS011;58869;51.982;4.450;2022-08-21T15:56:00;3.58;;;3.38;;
70450;SDS011;58869;51.982;4.450;2022-08-21T15:58:27;3.16;;;2.96;;
70450;SDS011;58869;51.982;4.450;2022-08-21T16:00:52;3.13;;;2.88;;
70450;SDS011;58869;51.982;4.450;2022-08-21T16:03:18;2.76;;;2.67;;
70450;SDS011;58869;51.982;4.450;2022-08-21T16:05:47;2.76;;;2.57;;
70450;SDS011;58869;51.982;4.450;2022-08-21T16:08:14;3.05;;;2.76;;
70450;SDS011;58869;51.982;4.450;2022-08-21T16:10:39;3.76;;;3.38;;
70450;SDS011;58869;51.982;4.450;2022-08-21T16:13:06;3.65;;;3.37;;
70450;SDS011;58869;51.982;4.450;2022-08-21T16:15:37;2.75;;;2.52;;
70450;SDS011;58869;51.982;4.450;2022-08-21T16:18:02;2.89;;;2.59;;
70450;SDS011;58869;51.982;4.450;2022-08-21T16:20:29;3.03;;;2.71;;
70450;SDS011;58869;51.982;4.450;2022-08-21T16:22:55;2.98;;;2.71;;
70450;SDS011;58869;51.982;4.450;2022-08-21T16:25:22;2.77;;;2.49;;
70450;SDS011;58869;51.982;4.450;2022-08-21T16:27:51;2.57;;;2.30;;